Time;durP1;ratioP1;P1;durP2;ratioP2;P2;SDS_P1;SDS_P2;PMS_P1;PMS_P2;Temp;Humidity;BMP_temperature;BMP_pressure;BME280_temperature;BME280_humidity;BME280_pressure;Samples;Min_cycle;Max_cycle;Signal;HPM_P1;HPM_P2
2023/05/18 00:01:18;;;;;;;11.23;6.50;;;;;;;;;;5029929;28;21179;-75
2023/05/18 00:03:46;;;;;;;10.23;6.67;;;;;;;;;;5030093;28;20330;-75
2023/05/18 00:06:13;;;;;;;10.80;6.27;;;;;;;;;;5030061;28;20204;-75
2023/05/18 00:08:40;;;;;;;9.90;6.73;;;;;;;;;;5029463;28;20291;-75
2023/05/18 00:11:07;;;;;;;11.63;6.33;;;;;;;;;;5030669;28;20227;-75
2023/05/18 00:13:34;;;;;;;10.07;6.73;;;;;;;;;;5030093;28;20318;-76
2023/05/18 00:16:01;;;;;;;9.53;6.47;;;;;;;;;;5030736;28;20235;-75
2023/05/18 00:18:30;;;;;;;11.90;6.20;;;;;;;;;;5030424;28;20219;-74
2023/05/18 00:20:59;;;;;;;9.93;6.37;;;;;;;;;;5029490;28;20723;-74
2023/05/18 00:23:28;;;;;;;9.70;6.57;;;;;;;;;;5030721;28;20323;-73
2023/05/18 00:25:56;;;;;;;12.57;7.27;;;;;;;;;;5030702;28;20250;-73
2023/05/18 00:28:23;;;;;;;11.00;7.00;;;;;;;;;;5031013;28;20287;-74
2023/05/18 00:30:50;;;;;;;9.47;6.40;;;;;;;;;;5030576;28;20228;-74
2023/05/18 00:33:17;;;;;;;12.70;6.43;;;;;;;;;;5029876;28;20344;-73
2023/05/18 00:35:46;;;;;;;14.60;6.57;;;;;;;;;;5030466;28;20283;-75
2023/05/18 00:38:14;;;;;;;13.37;7.07;;;;;;;;;;5030134;28;20238;-76
2023/05/18 00:40:41;;;;;;;12.33;6.90;;;;;;;;;;5030343;28;20650;-76
2023/05/18 00:43:08;;;;;;;12.80;7.23;;;;;;;;;;5030266;28;20201;-75
2023/05/18 00:45:36;;;;;;;11.83;6.70;;;;;;;;;;5030370;28;20654;-76
2023/05/18 00:48:03;;;;;;;11.97;6.47;;;;;;;;;;5029895;28;20772;-76
2023/05/18 00:50:30;;;;;;;11.20;6.40;;;;;;;;;;5030366;28;20630;-76
2023/05/18 00:52:59;;;;;;;12.37;6.43;;;;;;;;;;5029692;28;20319;-74
2023/05/18 00:55:27;;;;;;;9.87;5.93;;;;;;;;;;5030068;28;20207;-76
2023/05/18 00:57:55;;;;;;;11.67;6.07;;;;;;;;;;5029974;28;20196;-75
2023/05/18 01:00:22;;;;;;;8.87;6.07;;;;;;;;;;5030003;28;20247;-75
2023/05/18 01:02:50;;;;;;;11.93;6.70;;;;;;;;;;5030185;28;20303;-76
2023/05/18 01:05:18;;;;;;;11.20;6.10;;;;;;;;;;5029583;28;20303;-75
2023/05/18 01:07:46;;;;;;;9.87;6.10;;;;;;;;;;5029972;28;20254;-74
2023/05/18 01:10:16;;;;;;;12.37;6.63;;;;;;;;;;5028810;28;20204;-75
2023/05/18 01:12:46;;;;;;;10.10;6.50;;;;;;;;;;5028735;28;20308;-76
2023/05/18 01:15:15;;;;;;;9.60;6.67;;;;;;;;;;5028885;28;20291;-75
2023/05/18 01:17:48;;;;;;;15.03;7.00;;;;;;;;;;5014029;28;20197;-75
2023/05/18 01:20:22;;;;;;;13.57;7.07;;;;;;;;;;5013804;28;20275;-75
2023/05/18 01:23:16;;;;;;;10.23;6.87;;;;;;;;;;5013694;28;20231;-75
2023/05/18 01:25:50;;;;;;;10.93;6.40;;;;;;;;;;5013528;28;20673;-75
2023/05/18 01:28:21;;;;;;;12.33;7.57;;;;;;;;;;5013520;28;20648;-75
2023/05/18 01:30:49;;;;;;;11.60;7.40;;;;;;;;;;5013508;28;20292;-75
2023/05/18 01:33:16;;;;;;;11.77;7.03;;;;;;;;;;5012673;28;20331;-75
2023/05/18 01:35:46;;;;;;;11.97;6.80;;;;;;;;;;5013785;28;20296;-75
2023/05/18 01:38:14;;;;;;;13.00;7.07;;;;;;;;;;5013532;28;20228;-75
2023/05/18 01:40:47;;;;;;;11.60;7.07;;;;;;;;;;5013380;28;20576;-75
2023/05/18 01:43:16;;;;;;;12.77;6.90;;;;;;;;;;5013391;28;20236;-75
2023/05/18 01:45:47;;;;;;;10.97;6.70;;;;;;;;;;5013707;28;20295;-75
2023/05/18 01:48:16;;;;;;;13.73;7.30;;;;;;;;;;5012726;28;20236;-75
2023/05/18 01:50:46;;;;;;;12.60;6.83;;;;;;;;;;5013426;28;20288;-74
2023/05/18 01:53:15;;;;;;;13.70;6.53;;;;;;;;;;5013127;28;20298;-75
2023/05/18 01:55:43;;;;;;;12.67;7.20;;;;;;;;;;5012764;28;20252;-75
2023/05/18 01:58:10;;;;;;;13.63;7.07;;;;;;;;;;5013337;28;20301;-75
2023/05/18 02:00:37;;;;;;;14.23;6.77;;;;;;;;;;5013154;28;20203;-75
2023/05/18 02:03:06;;;;;;;13.70;7.10;;;;;;;;;;5012734;28;20303;-75
2023/05/18 02:05:33;;;;;;;13.17;7.50;;;;;;;;;;5012894;28;20303;-75
2023/05/18 02:08:01;;;;;;;12.07;6.57;;;;;;;;;;5027478;28;20196;-75
2023/05/18 02:10:28;;;;;;;15.17;7.43;;;;;;;;;;5032214;28;20208;-75
2023/05/18 02:12:55;;;;;;;12.97;6.80;;;;;;;;;;5032176;28;20743;-74
2023/05/18 02:15:23;;;;;;;12.90;7.37;;;;;;;;;;5032488;28;20355;-75
2023/05/18 02:17:50;;;;;;;10.67;6.80;;;;;;;;;;5031622;28;20265;-74
2023/05/18 02:20:18;;;;;;;11.57;6.70;;;;;;;;;;5032575;28;20224;-75
2023/05/18 02:22:46;;;;;;;15.40;7.17;;;;;;;;;;5032412;28;20197;-74
2023/05/18 02:25:13;;;;;;;10.63;6.70;;;;;;;;;;5031567;28;20283;-74
2023/05/18 02:27:40;;;;;;;11.90;6.83;;;;;;;;;;5032367;28;20283;-75
2023/05/18 02:30:08;;;;;;;13.53;7.33;;;;;;;;;;5031952;28;20727;-74
2023/05/18 02:32:37;;;;;;;11.93;7.17;;;;;;;;;;5031599;28;20728;-74
2023/05/18 02:35:05;;;;;;;13.00;7.17;;;;;;;;;;5031823;28;20330;-75
2023/05/18 02:37:38;;;;;;;12.93;6.80;;;;;;;;;;5032248;28;20211;-75
2023/05/18 02:40:06;;;;;;;14.40;7.20;;;;;;;;;;5032229;28;20200;-75
2023/05/18 02:42:33;;;;;;;13.70;7.27;;;;;;;;;;5032150;28;20204;-75
2023/05/18 02:45:01;;;;;;;13.27;7.20;;;;;;;;;;5031908;28;20242;-74
2023/05/18 02:47:28;;;;;;;16.73;7.10;;;;;;;;;;5031365;28;20193;-74
2023/05/18 02:49:55;;;;;;;10.93;6.77;;;;;;;;;;5032011;28;20210;-74
2023/05/18 02:52:22;;;;;;;14.33;6.87;;;;;;;;;;5032447;28;20307;-75
2023/05/18 02:54:53;;;;;;;12.37;7.00;;;;;;;;;;5031397;28;20252;-75
2023/05/18 02:57:21;;;;;;;14.07;7.47;;;;;;;;;;5031385;28;20200;-74
2023/05/18 02:59:48;;;;;;;12.50;6.70;;;;;;;;;;5031438;28;20944;-75
2023/05/18 03:02:15;;;;;;;10.87;6.63;;;;;;;;;;5031087;28;20290;-75
2023/05/18 03:04:43;;;;;;;12.67;7.03;;;;;;;;;;5031183;28;20661;-74
2023/05/18 03:07:10;;;;;;;11.40;6.73;;;;;;;;;;5031613;28;20223;-75
2023/05/18 03:09:37;;;;;;;11.97;7.13;;;;;;;;;;5030192;28;20239;-76
2023/05/18 03:12:06;;;;;;;12.50;6.90;;;;;;;;;;5031785;28;20200;-75
2023/05/18 03:14:33;;;;;;;11.30;6.77;;;;;;;;;;5040377;28;20325;-75
2023/05/18 03:17:04;;;;;;;12.30;6.80;;;;;;;;;;5050988;28;20230;-75
2023/05/18 03:19:33;;;;;;;14.00;7.63;;;;;;;;;;5051166;28;20206;-75
2023/05/18 03:22:00;;;;;;;20.97;7.77;;;;;;;;;;5051171;28;20207;-75
2023/05/18 03:24:29;;;;;;;13.17;6.97;;;;;;;;;;5052088;28;20637;-75
2023/05/18 03:26:56;;;;;;;14.30;7.73;;;;;;;;;;5051025;28;20206;-75
2023/05/18 03:29:24;;;;;;;13.53;7.03;;;;;;;;;;5050713;28;20628;-75
2023/05/18 03:31:51;;;;;;;16.67;7.47;;;;;;;;;;5051003;28;20223;-76
2023/05/18 03:34:19;;;;;;;10.83;7.10;;;;;;;;;;5050577;28;20794;-76
2023/05/18 03:36:46;;;;;;;11.93;7.40;;;;;;;;;;5050647;28;20763;-75
2023/05/18 03:39:14;;;;;;;13.40;7.60;;;;;;;;;;5051019;28;20200;-75
2023/05/18 03:41:41;;;;;;;10.67;6.47;;;;;;;;;;5050761;28;20227;-75
2023/05/18 03:44:08;;;;;;;10.37;6.50;;;;;;;;;;5050329;28;20226;-75
2023/05/18 03:46:36;;;;;;;12.70;7.03;;;;;;;;;;5050893;28;20283;-75
2023/05/18 03:49:06;;;;;;;13.10;7.03;;;;;;;;;;5050648;28;20298;-74
2023/05/18 03:51:33;;;;;;;15.77;7.13;;;;;;;;;;5050740;28;20283;-76
2023/05/18 03:54:00;;;;;;;15.70;7.10;;;;;;;;;;5050370;28;20230;-75
2023/05/18 03:56:30;;;;;;;12.70;7.23;;;;;;;;;;5050747;28;20279;-75
2023/05/18 03:58:57;;;;;;;11.33;7.20;;;;;;;;;;5050255;28;20200;-75
2023/05/18 04:01:24;;;;;;;13.30;7.33;;;;;;;;;;5050319;28;20203;-74
2023/05/18 04:03:55;;;;;;;13.23;7.60;;;;;;;;;;5050625;28;20195;-75
2023/05/18 04:06:22;;;;;;;13.37;7.20;;;;;;;;;;5050954;28;20287;-74
2023/05/18 04:08:49;;;;;;;9.67;7.10;;;;;;;;;;5044747;28;20197;-75
2023/05/18 04:11:16;;;;;;;11.80;6.83;;;;;;;;;;5030446;28;20258;-75
2023/05/18 04:13:44;;;;;;;12.00;6.83;;;;;;;;;;5029494;28;20295;-74
2023/05/18 04:16:12;;;;;;;13.20;7.43;;;;;;;;;;5030376;28;20299;-75
2023/05/18 04:18:39;;;;;;;12.13;6.60;;;;;;;;;;5030226;28;20236;-75
2023/05/18 04:21:08;;;;;;;15.10;7.40;;;;;;;;;;5030263;28;20219;-75
2023/05/18 04:23:37;;;;;;;14.30;7.27;;;;;;;;;;5030714;28;20292;-75
2023/05/18 04:26:05;;;;;;;12.97;7.10;;;;;;;;;;5030350;28;20204;-75
2023/05/18 04:28:32;;;;;;;12.67;7.47;;;;;;;;;;5029882;28;20204;-76
2023/05/18 04:31:00;;;;;;;12.13;7.63;;;;;;;;;;5030410;28;20239;-76
2023/05/18 04:33:28;;;;;;;13.10;7.50;;;;;;;;;;5030278;28;20232;-75
2023/05/18 04:35:57;;;;;;;16.27;7.97;;;;;;;;;;5029725;28;20235;-76
2023/05/18 04:38:26;;;;;;;12.40;7.43;;;;;;;;;;5030788;28;20227;-75
2023/05/18 04:40:55;;;;;;;14.37;7.60;;;;;;;;;;5030649;28;20205;-75
2023/05/18 04:43:22;;;;;;;11.80;7.63;;;;;;;;;;5029920;28;20200;-74
2023/05/18 04:45:50;;;;;;;14.40;7.47;;;;;;;;;;5029975;28;20258;-75
2023/05/18 04:48:18;;;;;;;11.97;7.77;;;;;;;;;;5031854;28;20201;-75
2023/05/18 04:50:45;;;;;;;17.40;7.77;;;;;;;;;;5034452;28;20664;-75
2023/05/18 04:53:16;;;;;;;14.43;8.07;;;;;;;;;;5034399;28;20203;-75
2023/05/18 04:55:45;;;;;;;13.80;8.07;;;;;;;;;;5033748;28;20232;-76
2023/05/18 04:58:13;;;;;;;12.13;7.50;;;;;;;;;;5033454;28;20247;-75
2023/05/18 05:00:41;;;;;;;14.63;7.83;;;;;;;;;;5034215;28;20291;-75
2023/05/18 05:03:08;;;;;;;13.10;7.37;;;;;;;;;;5034134;28;20200;-75
2023/05/18 05:05:35;;;;;;;12.27;7.27;;;;;;;;;;5033633;28;20287;-75
2023/05/18 05:08:05;;;;;;;14.80;7.87;;;;;;;;;;5033536;28;20681;-75
2023/05/18 05:10:32;;;;;;;14.97;7.73;;;;;;;;;;5032778;28;20247;-75
2023/05/18 05:13:01;;;;;;;17.30;7.80;;;;;;;;;;5033221;28;20292;-74
2023/05/18 05:15:28;;;;;;;12.13;7.47;;;;;;;;;;5033009;28;20612;-75
2023/05/18 05:17:56;;;;;;;11.47;7.20;;;;;;;;;;5033901;28;20287;-75
2023/05/18 05:20:23;;;;;;;12.90;7.67;;;;;;;;;;5033770;28;20279;-75
2023/05/18 05:22:50;;;;;;;12.37;7.73;;;;;;;;;;5033233;28;20236;-75
2023/05/18 05:25:17;;;;;;;14.23;8.27;;;;;;;;;;5032817;28;20244;-75
2023/05/18 05:27:44;;;;;;;13.03;7.47;;;;;;;;;;5033601;28;20235;-75
2023/05/18 05:30:13;;;;;;;15.07;7.67;;;;;;;;;;5033142;28;20291;-75
2023/05/18 05:32:40;;;;;;;16.60;8.10;;;;;;;;;;5033056;28;20259;-75
2023/05/18 05:35:08;;;;;;;11.87;7.60;;;;;;;;;;5033224;28;20318;-75
2023/05/18 05:37:35;;;;;;;12.67;7.30;;;;;;;;;;5033382;28;20235;-75
2023/05/18 05:40:05;;;;;;;12.67;7.37;;;;;;;;;;5032779;28;20205;-76
2023/05/18 05:42:32;;;;;;;11.30;7.33;;;;;;;;;;5033073;28;20673;-75
2023/05/18 05:44:59;;;;;;;11.67;7.03;;;;;;;;;;5032915;28;20900;-75
2023/05/18 05:47:28;;;;;;;14.30;7.40;;;;;;;;;;5033356;28;20608;-75
2023/05/18 05:49:55;;;;;;;11.80;7.07;;;;;;;;;;5032875;28;20232;-76
2023/05/18 05:52:22;;;;;;;11.10;6.90;;;;;;;;;;5033118;28;20209;-75
2023/05/18 05:54:49;;;;;;;13.77;7.63;;;;;;;;;;5032333;28;20272;-76
2023/05/18 05:57:17;;;;;;;12.27;7.10;;;;;;;;;;5032442;28;20299;-75
2023/05/18 05:59:44;;;;;;;12.93;7.07;;;;;;;;;;5031799;28;20292;-75
2023/05/18 06:02:11;;;;;;;12.13;7.17;;;;;;;;;;5032827;28;20296;-75
2023/05/18 06:04:40;;;;;;;11.20;7.07;;;;;;;;;;5032847;28;20303;-76
2023/05/18 06:07:07;;;;;;;11.50;6.37;;;;;;;;;;5031179;28;20685;-75
2023/05/18 06:09:34;;;;;;;12.00;7.50;;;;;;;;;;5031656;28;20283;-75
2023/05/18 06:12:02;;;;;;;14.40;6.77;;;;;;;;;;5032280;28;20299;-75
2023/05/18 06:14:29;;;;;;;12.13;7.07;;;;;;;;;;5032417;28;20565;-75
2023/05/18 06:16:56;;;;;;;11.47;6.83;;;;;;;;;;5032636;28;20295;-75
2023/05/18 06:19:23;;;;;;;12.93;6.50;;;;;;;;;;5032608;28;20279;-75
2023/05/18 06:21:52;;;;;;;11.97;7.47;;;;;;;;;;5032257;28;20279;-75
2023/05/18 06:24:19;;;;;;;9.83;6.50;;;;;;;;;;5032007;28;20291;-75
2023/05/18 06:26:46;;;;;;;13.93;7.20;;;;;;;;;;5032161;28;20643;-75
2023/05/18 06:29:13;;;;;;;11.63;6.43;;;;;;;;;;5032272;28;20235;-75
2023/05/18 06:31:41;;;;;;;10.87;7.10;;;;;;;;;;5032523;28;20291;-75
2023/05/18 06:34:08;;;;;;;13.13;6.90;;;;;;;;;;5031709;28;20232;-76
2023/05/18 06:36:35;;;;;;;12.93;6.77;;;;;;;;;;5031786;28;20326;-75
2023/05/18 06:39:04;;;;;;;10.27;6.50;;;;;;;;;;5031450;28;20541;-75
2023/05/18 06:41:31;;;;;;;11.60;6.67;;;;;;;;;;5031902;28;20193;-74
2023/05/18 06:44:00;;;;;;;9.33;6.20;;;;;;;;;;5032006;28;20299;-74
2023/05/18 06:46:27;;;;;;;9.37;6.40;;;;;;;;;;5032041;28;20200;-74
2023/05/18 06:48:55;;;;;;;10.63;5.93;;;;;;;;;;5026019;28;20201;-75
2023/05/18 06:51:22;;;;;;;12.97;6.83;;;;;;;;;;5018829;28;20215;-75
2023/05/18 06:53:50;;;;;;;12.57;5.90;;;;;;;;;;5011883;28;20208;-75
2023/05/18 06:56:18;;;;;;;11.53;6.47;;;;;;;;;;5014823;28;20275;-76
2023/05/18 06:58:46;;;;;;;11.43;6.77;;;;;;;;;;5018699;28;20296;-75
2023/05/18 07:01:13;;;;;;;11.40;6.40;;;;;;;;;;5011433;28;20292;-75
2023/05/18 07:03:40;;;;;;;11.13;6.20;;;;;;;;;;5012243;28;20292;-76
2023/05/18 07:06:08;;;;;;;11.90;5.97;;;;;;;;;;5012008;28;20227;-74
2023/05/18 07:08:35;;;;;;;10.03;5.77;;;;;;;;;;5010845;28;20198;-75
2023/05/18 07:11:03;;;;;;;9.60;6.73;;;;;;;;;;5028833;28;20197;-74
2023/05/18 07:13:31;;;;;;;10.27;6.37;;;;;;;;;;5032160;28;20223;-75
2023/05/18 07:15:58;;;;;;;12.40;6.13;;;;;;;;;;5032319;28;20228;-75
2023/05/18 07:18:26;;;;;;;11.93;6.10;;;;;;;;;;5024567;28;20247;-74
2023/05/18 07:20:53;;;;;;;9.63;6.47;;;;;;;;;;5019885;28;20201;-75
2023/05/18 07:23:21;;;;;;;9.77;5.80;;;;;;;;;;5020739;28;20756;-76
2023/05/18 07:25:48;;;;;;;11.53;6.63;;;;;;;;;;5021439;28;20272;-75
2023/05/18 07:28:16;;;;;;;10.03;6.43;;;;;;;;;;5016754;28;20663;-75
2023/05/18 07:30:44;;;;;;;10.90;6.47;;;;;;;;;;5020394;28;20193;-74
2023/05/18 07:33:11;;;;;;;13.43;7.00;;;;;;;;;;5023279;28;20255;-74
2023/05/18 07:35:39;;;;;;;12.37;6.47;;;;;;;;;;5019398;28;20272;-75
2023/05/18 07:38:06;;;;;;;11.40;6.60;;;;;;;;;;5021063;28;20633;-75
2023/05/18 07:40:33;;;;;;;10.43;6.43;;;;;;;;;;5020475;28;20578;-75
2023/05/18 07:43:00;;;;;;;15.83;7.03;;;;;;;;;;5028108;28;20200;-75
2023/05/18 07:45:28;;;;;;;13.18;6.90;;;;;;;;;;5030936;28;20291;-74
2023/05/18 07:47:57;;;;;;;10.65;6.88;;;;;;;;;;5028654;28;20229;-75
2023/05/18 07:50:25;;;;;;;11.50;6.90;;;;;;;;;;5026129;28;20216;-75
2023/05/18 07:52:52;;;;;;;11.90;6.95;;;;;;;;;;5029303;28;20188;-76
2023/05/18 07:55:19;;;;;;;11.98;6.90;;;;;;;;;;5024278;28;20231;-76
2023/05/18 07:57:46;;;;;;;12.57;6.88;;;;;;;;;;5021299;28;20288;-75
2023/05/18 08:00:16;;;;;;;12.52;6.68;;;;;;;;;;5020389;28;20292;-75
2023/05/18 08:02:43;;;;;;;10.60;6.53;;;;;;;;;;5017405;28;20860;-75
2023/05/18 08:05:12;;;;;;;11.98;6.63;;;;;;;;;;5023638;28;20600;-76
2023/05/18 08:07:40;;;;;;;11.95;7.00;;;;;;;;;;5026582;28;20199;-74
2023/05/18 08:10:07;;;;;;;11.60;7.07;;;;;;;;;;5035019;28;20628;-75
2023/05/18 08:12:34;;;;;;;12.93;6.97;;;;;;;;;;5038765;28;20729;-75
2023/05/18 08:15:01;;;;;;;8.73;6.47;;;;;;;;;;5025615;28;20587;-75
2023/05/18 08:17:29;;;;;;;11.13;6.13;;;;;;;;;;5040582;28;20287;-76
2023/05/18 08:19:56;;;;;;;11.37;6.63;;;;;;;;;;5013896;28;20208;-74
2023/05/18 08:22:25;;;;;;;10.33;6.07;;;;;;;;;;5043169;28;20231;-75
2023/05/18 08:24:53;;;;;;;11.50;6.67;;;;;;;;;;5030448;28;20254;-75
2023/05/18 08:27:20;;;;;;;12.30;6.75;;;;;;;;;;5028579;28;20204;-75
2023/05/18 08:29:47;;;;;;;12.75;6.75;;;;;;;;;;5030070;28;20292;-75
2023/05/18 08:32:15;;;;;;;9.93;5.68;;;;;;;;;;5028380;28;20280;-75
2023/05/18 08:34:42;;;;;;;10.50;5.57;;;;;;;;;;5026224;28;20208;-75
2023/05/18 08:37:09;;;;;;;9.55;5.90;;;;;;;;;;5030784;28;20259;-75
2023/05/18 08:39:39;;;;;;;9.63;5.53;;;;;;;;;;5030325;28;20280;-76
2023/05/18 08:42:08;;;;;;;9.32;5.55;;;;;;;;;;5018465;28;20304;-75
2023/05/18 08:44:40;;;;;;;7.75;4.40;;;;;;;;;;5034802;28;20371;-75
2023/05/18 08:47:09;;;;;;;7.00;4.57;;;;;;;;;;5032530;28;20228;-75
2023/05/18 08:49:37;;;;;;;9.05;4.40;;;;;;;;;;5019350;28;20296;-73
2023/05/18 08:52:05;;;;;;;9.00;4.57;;;;;;;;;;5042062;28;20287;-76
2023/05/18 08:54:33;;;;;;;6.63;4.43;;;;;;;;;;5033886;28;20699;-75
2023/05/18 08:57:02;;;;;;;8.55;4.47;;;;;;;;;;5043343;28;20264;-76
2023/05/18 08:59:32;;;;;;;7.78;4.25;;;;;;;;;;5041864;28;20290;-74
2023/05/18 09:01:59;;;;;;;7.97;4.70;;;;;;;;;;5035775;28;20291;-74
2023/05/18 09:04:27;;;;;;;8.95;4.55;;;;;;;;;;5041995;28;20676;-75
2023/05/18 09:06:55;;;;;;;9.90;4.53;;;;;;;;;;5029012;28;20213;-75
2023/05/18 09:09:22;;;;;;;10.30;4.63;;;;;;;;;;5022968;28;20675;-75
2023/05/18 09:11:50;;;;;;;11.35;4.50;;;;;;;;;;5025816;28;20289;-75
2023/05/18 09:14:21;;;;;;;6.75;4.57;;;;;;;;;;5027948;28;20255;-75
2023/05/18 09:16:49;;;;;;;11.15;5.40;;;;;;;;;;5021991;28;20221;-75
2023/05/18 09:19:16;;;;;;;8.13;5.15;;;;;;;;;;5020595;28;20287;-75
2023/05/18 09:21:43;;;;;;;8.57;5.10;;;;;;;;;;5021331;28;20193;-75
2023/05/18 09:24:10;;;;;;;8.23;5.18;;;;;;;;;;5013701;28;20207;-75
2023/05/18 09:26:38;;;;;;;9.10;5.00;;;;;;;;;;5010840;28;20202;-75
2023/05/18 09:29:15;;;;;;;8.98;4.97;;;;;;;;;;5011144;28;20225;-75
2023/05/18 09:31:45;;;;;;;8.93;5.93;;;;;;;;;;5010638;28;20205;-74
2023/05/18 09:34:12;;;;;;;8.70;5.50;;;;;;;;;;5012518;28;20252;-75
2023/05/18 09:36:39;;;;;;;12.88;7.28;;;;;;;;;;5014612;28;20794;-75
2023/05/18 09:39:10;;;;;;;8.90;5.70;;;;;;;;;;5014558;28;20197;-75
2023/05/18 09:41:38;;;;;;;10.30;5.18;;;;;;;;;;5014245;28;20208;-74
2023/05/18 09:44:08;;;;;;;8.95;5.60;;;;;;;;;;5015991;28;20197;-75
2023/05/18 09:46:36;;;;;;;10.73;5.47;;;;;;;;;;5022556;28;20190;-75
2023/05/18 09:49:05;;;;;;;12.00;5.60;;;;;;;;;;5024010;28;20276;-75
2023/05/18 09:51:35;;;;;;;8.65;5.53;;;;;;;;;;5024848;28;20567;-75
2023/05/18 09:54:04;;;;;;;9.43;5.30;;;;;;;;;;5031308;28;20227;-75
2023/05/18 09:56:31;;;;;;;8.55;4.70;;;;;;;;;;5041719;28;20250;-75
2023/05/18 09:58:59;;;;;;;6.72;4.22;;;;;;;;;;5038073;28;20681;-75
2023/05/18 10:01:26;;;;;;;8.90;4.35;;;;;;;;;;5049608;28;20206;-75
2023/05/18 10:03:53;;;;;;;8.82;5.25;;;;;;;;;;5037695;28;20282;-74
2023/05/18 10:06:27;;;;;;;10.55;4.75;;;;;;;;;;5045674;28;20196;-74
2023/05/18 10:08:54;;;;;;;11.48;4.28;;;;;;;;;;5045733;28;21364;-75
2023/05/18 10:11:22;;;;;;;8.40;4.20;;;;;;;;;;5031814;28;20201;-75
2023/05/18 10:13:54;;;;;;;8.15;4.22;;;;;;;;;;5016859;28;20658;-74
2023/05/18 10:16:24;;;;;;;9.93;4.13;;;;;;;;;;5040857;28;20219;-76
2023/05/18 10:18:52;;;;;;;10.38;5.25;;;;;;;;;;5041017;28;20201;-75
2023/05/18 10:21:20;;;;;;;8.55;4.97;;;;;;;;;;5049166;28;20588;-75
2023/05/18 10:23:48;;;;;;;8.10;4.63;;;;;;;;;;5036439;28;20187;-75
2023/05/18 10:26:17;;;;;;;10.07;4.72;;;;;;;;;;5045851;28;20192;-75
2023/05/18 10:28:46;;;;;;;6.88;4.40;;;;;;;;;;5044334;28;20283;-75
2023/05/18 10:31:16;;;;;;;7.57;4.25;;;;;;;;;;5037543;28;20223;-75
2023/05/18 10:33:44;;;;;;;8.52;4.85;;;;;;;;;;5049069;28;20255;-74
2023/05/18 10:36:11;;;;;;;10.80;4.50;;;;;;;;;;5039202;28;20219;-76
2023/05/18 10:38:39;;;;;;;9.35;4.93;;;;;;;;;;5042214;28;20279;-75
2023/05/18 10:41:08;;;;;;;9.80;4.80;;;;;;;;;;5039255;28;20201;-76
2023/05/18 10:43:36;;;;;;;8.57;4.90;;;;;;;;;;5037071;28;20195;-76
2023/05/18 10:46:06;;;;;;;8.80;4.75;;;;;;;;;;5043462;28;20235;-76
2023/05/18 10:48:38;;;;;;;10.80;5.00;;;;;;;;;;5032428;28;20283;-75
2023/05/18 10:51:07;;;;;;;8.63;4.40;;;;;;;;;;5048954;28;20763;-76
2023/05/18 10:53:35;;;;;;;29.95;16.27;;;;;;;;;;5036868;28;20242;-75
2023/05/18 10:56:02;;;;;;;11.43;6.00;;;;;;;;;;5044621;28;20195;-76
2023/05/18 10:58:31;;;;;;;10.40;4.97;;;;;;;;;;5040681;28;20192;-76
2023/05/18 11:01:00;;;;;;;7.97;4.85;;;;;;;;;;5048154;28;20196;-75
2023/05/18 11:03:28;;;;;;;9.90;4.78;;;;;;;;;;5036042;28;20637;-75
2023/05/18 11:06:05;;;;;;;7.70;4.72;;;;;;;;;;5044883;28;20280;-76
2023/05/18 11:08:33;;;;;;;9.43;4.53;;;;;;;;;;5044251;28;20206;-75
2023/05/18 11:11:01;;;;;;;7.60;4.72;;;;;;;;;;5035991;28;20706;-76
2023/05/18 11:13:31;;;;;;;9.70;5.78;;;;;;;;;;5034689;28;20196;-75
2023/05/18 11:16:05;;;;;;;10.32;4.53;;;;;;;;;;5039535;28;20200;-75
2023/05/18 11:18:35;;;;;;;9.82;4.88;;;;;;;;;;5040230;28;20597;-74
2023/05/18 11:21:03;;;;;;;9.02;4.60;;;;;;;;;;5048431;28;20196;-74
2023/05/18 11:23:31;;;;;;;6.82;4.38;;;;;;;;;;5019725;28;20202;-76
2023/05/18 11:26:01;;;;;;;8.90;4.43;;;;;;;;;;5044092;28;20224;-75
2023/05/18 11:28:29;;;;;;;8.75;4.50;;;;;;;;;;5043653;28;20210;-75
2023/05/18 11:30:57;;;;;;;8.00;4.40;;;;;;;;;;5036326;28;20233;-76
2023/05/18 11:33:27;;;;;;;8.77;4.97;;;;;;;;;;5032413;28;20781;-75
2023/05/18 11:36:06;;;;;;;7.53;4.57;;;;;;;;;;5038748;28;20261;-75
2023/05/18 11:38:46;;;;;;;9.95;5.00;;;;;;;;;;5038862;28;20192;-76
2023/05/18 11:41:27;;;;;;;9.13;4.85;;;;;;;;;;5037166;28;20729;-75
2023/05/18 11:44:08;;;;;;;6.30;4.88;;;;;;;;;;5040868;28;20196;-76
2023/05/18 11:46:37;;;;;;;8.90;4.28;;;;;;;;;;5038496;28;20200;-76
2023/05/18 11:49:04;;;;;;;5.32;4.10;;;;;;;;;;5032854;28;20287;-76
2023/05/18 11:51:32;;;;;;;7.72;4.63;;;;;;;;;;5047469;28;20228;-75
2023/05/18 11:54:00;;;;;;;10.85;4.63;;;;;;;;;;5039737;28;20210;-76
2023/05/18 11:56:33;;;;;;;8.65;4.80;;;;;;;;;;5039455;28;20325;-75
2023/05/18 11:59:12;;;;;;;9.25;4.75;;;;;;;;;;5046679;28;20761;-75
2023/05/18 12:01:41;;;;;;;8.07;4.20;;;;;;;;;;5021690;28;20279;-76
2023/05/18 12:04:09;;;;;;;6.55;4.32;;;;;;;;;;5025633;28;20272;-76
2023/05/18 12:06:37;;;;;;;8.23;4.45;;;;;;;;;;5027581;28;20287;-75
2023/05/18 12:09:04;;;;;;;9.30;4.80;;;;;;;;;;5032023;28;20283;-75
2023/05/18 12:11:32;;;;;;;9.55;5.00;;;;;;;;;;5030883;28;20747;-75
2023/05/18 12:13:59;;;;;;;6.57;4.65;;;;;;;;;;5031409;28;20200;-75
2023/05/18 12:16:26;;;;;;;8.60;4.93;;;;;;;;;;5029288;28;20299;-75
2023/05/18 12:18:54;;;;;;;7.97;4.90;;;;;;;;;;5022366;28;20287;-75
2023/05/18 12:21:23;;;;;;;10.40;5.07;;;;;;;;;;5020860;28;20739;-75
2023/05/18 12:23:57;;;;;;;11.00;5.13;;;;;;;;;;5022066;28;20200;-76
2023/05/18 12:26:27;;;;;;;9.65;5.68;;;;;;;;;;5021178;28;20572;-75
2023/05/18 12:28:54;;;;;;;12.35;5.63;;;;;;;;;;5019555;28;20193;-76
2023/05/18 12:31:21;;;;;;;9.13;5.40;;;;;;;;;;5020014;28;20689;-75
2023/05/18 12:33:49;;;;;;;10.90;5.82;;;;;;;;;;5020953;28;20286;-75
2023/05/18 12:36:18;;;;;;;8.25;5.80;;;;;;;;;;5021911;28;20197;-75
2023/05/18 12:38:49;;;;;;;12.43;5.53;;;;;;;;;;5021352;28;20311;-76
2023/05/18 12:41:26;;;;;;;8.23;5.00;;;;;;;;;;5021805;28;20193;-75
2023/05/18 12:43:54;;;;;;;8.25;5.22;;;;;;;;;;5021275;28;20276;-75
2023/05/18 12:46:22;;;;;;;8.00;5.28;;;;;;;;;;5019778;28;20204;-75
2023/05/18 12:48:56;;;;;;;11.13;5.68;;;;;;;;;;5030121;28;20200;-76
2023/05/18 12:51:29;;;;;;;9.95;5.85;;;;;;;;;;5042159;28;20206;-75
2023/05/18 12:53:57;;;;;;;7.65;5.50;;;;;;;;;;5027961;28;20200;-75
2023/05/18 12:56:24;;;;;;;9.38;5.25;;;;;;;;;;5046801;28;20294;-75
2023/05/18 12:58:59;;;;;;;9.52;5.70;;;;;;;;;;5037989;28;20232;-75
2023/05/18 13:01:26;;;;;;;9.15;4.82;;;;;;;;;;5039052;28;20223;-75
2023/05/18 13:03:57;;;;;;;6.55;4.90;;;;;;;;;;5031385;28;20297;-75
2023/05/18 13:06:26;;;;;;;9.02;5.18;;;;;;;;;;5030945;28;20219;-74
2023/05/18 13:08:56;;;;;;;8.07;4.43;;;;;;;;;;5040702;28;20211;-75
2023/05/18 13:11:26;;;;;;;9.05;4.70;;;;;;;;;;5054649;28;20279;-75
2023/05/18 13:14:00;;;;;;;10.20;5.28;;;;;;;;;;5050178;28;20598;-75
2023/05/18 13:16:28;;;;;;;7.95;4.50;;;;;;;;;;5045042;28;20278;-75
2023/05/18 13:18:56;;;;;;;6.85;5.30;;;;;;;;;;5041017;28;20311;-75
2023/05/18 13:21:23;;;;;;;8.52;5.20;;;;;;;;;;5047659;28;20764;-75
2023/05/18 13:23:52;;;;;;;8.23;5.13;;;;;;;;;;5035058;28;20200;-75
2023/05/18 13:26:20;;;;;;;9.18;5.38;;;;;;;;;;5032115;28;20193;-75
2023/05/18 13:28:48;;;;;;;8.45;5.32;;;;;;;;;;5046498;28;20200;-75
2023/05/18 13:31:15;;;;;;;13.02;5.63;;;;;;;;;;5037842;28;20283;-75
2023/05/18 13:33:42;;;;;;;10.98;5.60;;;;;;;;;;5021149;28;20764;-75
2023/05/18 13:36:09;;;;;;;9.98;5.25;;;;;;;;;;5046385;28;20634;-76
2023/05/18 13:38:37;;;;;;;9.80;5.70;;;;;;;;;;5044997;28;20306;-75
2023/05/18 13:41:06;;;;;;;9.73;5.68;;;;;;;;;;5039058;28;20287;-74
2023/05/18 13:43:33;;;;;;;9.38;5.35;;;;;;;;;;5050390;28;20223;-76
2023/05/18 13:46:01;;;;;;;9.52;4.93;;;;;;;;;;5039644;28;20199;-75
2023/05/18 13:48:28;;;;;;;8.70;5.32;;;;;;;;;;5044838;28;20203;-75
2023/05/18 13:50:56;;;;;;;9.73;5.10;;;;;;;;;;5036296;28;20287;-76
2023/05/18 13:53:23;;;;;;;9.15;5.20;;;;;;;;;;5032714;28;20292;-76
2023/05/18 13:55:50;;;;;;;9.55;5.45;;;;;;;;;;5022907;28;20679;-75
2023/05/18 13:58:19;;;;;;;8.55;5.25;;;;;;;;;;5047779;28;20327;-75
2023/05/18 14:00:46;;;;;;;10.90;5.40;;;;;;;;;;5030787;28;20197;-75
2023/05/18 14:03:16;;;;;;;9.25;5.45;;;;;;;;;;5033415;28;20200;-75
2023/05/18 14:05:43;;;;;;;8.38;5.22;;;;;;;;;;5048293;28;20200;-75
2023/05/18 14:08:10;;;;;;;12.20;6.18;;;;;;;;;;5036165;28;20708;-76
2023/05/18 14:10:37;;;;;;;8.35;5.32;;;;;;;;;;5043741;28;20196;-75
2023/05/18 14:13:04;;;;;;;8.50;5.68;;;;;;;;;;5043822;28;20220;-76
2023/05/18 14:15:33;;;;;;;10.00;5.63;;;;;;;;;;5032726;28;20292;-76
2023/05/18 14:18:00;;;;;;;9.15;5.82;;;;;;;;;;5046588;28;20224;-75
2023/05/18 14:20:28;;;;;;;8.70;5.70;;;;;;;;;;5030711;28;20223;-75
2023/05/18 14:22:55;;;;;;;8.18;5.40;;;;;;;;;;5028650;28;20195;-75
2023/05/18 14:25:22;;;;;;;10.98;5.97;;;;;;;;;;5041209;28;20200;-76
2023/05/18 14:27:50;;;;;;;11.35;5.65;;;;;;;;;;5049117;28;20234;-75
2023/05/18 14:30:17;;;;;;;9.65;6.53;;;;;;;;;;5036246;28;20584;-76
2023/05/18 14:32:45;;;;;;;9.73;6.00;;;;;;;;;;5046018;28;20688;-74
2023/05/18 14:35:13;;;;;;;9.13;5.90;;;;;;;;;;5042991;28;20279;-76
2023/05/18 14:37:40;;;;;;;10.52;6.50;;;;;;;;;;5038406;28;20683;-76
2023/05/18 14:40:08;;;;;;;7.60;6.20;;;;;;;;;;5016689;28;20657;-75
2023/05/18 14:42:35;;;;;;;8.73;5.43;;;;;;;;;;5033951;28;20280;-75